Weather at Haikou Meilan International Airport

Public forecast

Using degrees Celsius for public forecast. Weather courtesy of forecast.io.

Current aviation weather report (METAR) for Haikou Meilan International Airport

Retrieved 2020/11/23 23:00 UTC (59 minutes ago):

ZJHK 232300Z 08006MPS 9999 SCT013 BKN040 24/23 Q1017 NOSIG

Aviation forecast (TAF) for Haikou Meilan International Airport

Retrieved 2020/11/23 18:03 UTC (6 hours ago):

TAF ZJHK 231506Z 2318/2418 06006MPS 9999 BKN010 BKN020 TX25/2406Z TN22/2321Z